General Aviation Weather

Text Reports

Enter one or more of the following location identifiers separated by a space:

Zip Code, Four-Character ICAO or Three-Character IATA airport codes.

METAR - Aviation Routine Weather Report
KSET - St. Charles, Missouri
Updated at 11:28 AM GMT on February 09, 2016 (5:28 AM CST):
SPECI KSET 091128Z AUTO 33008KT 2 1/2SM -SN OVC023 M07/M09 A2992 RMK AO2 P0000 T10671094 $
TAF - Terminal Area Forecast
KSET - St. Charles, Missouri
Updated at 11:28 AM GMT on February 09, 2016 (5:28 AM CST):
No TAF is currently available for this location.
Decoded:
No decoded TAF is available.
PIREP - Pilot Weather Report
KSET - St. Charles, Missouri
Updated at 11:28 AM GMT on February 09, 2016 (5:28 AM CST):
No PIREP is currently available for this location.
AIRMET - Airmens Meteorological Information
KSET - St. Charles, Missouri
Updated at 11:28 AM GMT on February 09, 2016 (5:28 AM CST):
No AIRMET is currently available for this location.
SIGMET - Significant Meteorological Information
KSET - St. Charles, Missouri
Updated at 11:28 AM GMT on February 09, 2016 (5:28 AM CST):
No SIGMET is currently available for this location.
NOTAM - Notice to Airmen
KSET - St. Charles, Missouri
Updated at 11:28 AM GMT on February 09, 2016 (5:28 AM CST):
No NOTAM is currently available for this location.
Forecast Area
KSET - St. Charles, Missouri
Updated at 11:28 AM GMT on February 09, 2016 (5:28 AM CST):
No NOTAM is currently available for this location.
Aviation Weather Maps